createdAt,value
2017-04-02T00:00:33.527Z,20.67
2017-04-02T00:01:33.535Z,20.67
2017-04-02T00:02:33.232Z,20.66
2017-04-02T00:03:48.113Z,20.74
2017-04-02T00:04:33.604Z,20.61
2017-04-02T00:05:33.559Z,20.58
2017-04-02T00:06:33.563Z,20.62
2017-04-02T00:07:34.275Z,20.64
2017-04-02T00:08:33.312Z,20.7
2017-04-02T00:09:33.631Z,20.66
2017-04-02T00:10:33.690Z,20.64
2017-04-02T00:11:34.845Z,20.66
2017-04-02T00:12:33.598Z,20.67
2017-04-02T00:13:33.343Z,20.73
2017-04-02T00:14:33.298Z,20.66
2017-04-02T00:15:33.667Z,20.73
2017-04-02T00:16:33.620Z,20.72
2017-04-02T00:17:33.625Z,20.77
2017-04-02T00:18:33.983Z,20.66
2017-04-02T00:19:33.743Z,20.67
2017-04-02T00:20:33.644Z,20.66
2017-04-02T00:21:33.699Z,20.73
2017-04-02T00:22:34.140Z,20.59
2017-04-02T00:23:33.765Z,20.57
2017-04-02T00:24:33.403Z,20.58
2017-04-02T00:25:33.407Z,20.61
2017-04-02T00:26:33.363Z,20.72
2017-04-02T00:27:33.731Z,20.72
2017-04-02T00:28:33.689Z,20.64
2017-04-02T00:29:33.450Z,20.66
2017-04-02T00:30:33.174Z,20.7
2017-04-02T00:31:34.683Z,20.73
2017-04-02T00:32:33.714Z,20.67
2017-04-02T00:33:49.285Z,20.64
2017-04-02T00:34:33.720Z,20.67
2017-04-02T00:35:33.780Z,20.58
2017-04-02T00:36:33.422Z,20.57
2017-04-02T00:37:33.788Z,20.72
2017-04-02T00:38:33.898Z,20.7
2017-04-02T00:39:33.851Z,20.61
2017-04-02T00:40:33.859Z,20.58
2017-04-02T00:41:33.761Z,20.67
2017-04-02T00:42:35.020Z,20.73
2017-04-02T00:43:33.772Z,20.7
2017-04-02T00:44:33.777Z,20.7
2017-04-02T00:45:33.889Z,20.61
2017-04-02T00:46:33.791Z,20.72
2017-04-02T00:47:33.895Z,20.69
2017-04-02T00:48:33.799Z,20.69
2017-04-02T00:49:33.808Z,20.64
2017-04-02T00:50:33.863Z,20.67
2017-04-02T00:51:33.819Z,20.62
2017-04-02T00:52:33.560Z,20.64
2017-04-02T00:53:34.733Z,20.7
2017-04-02T00:54:33.521Z,20.67
2017-04-02T00:55:33.840Z,20.62
2017-04-02T00:56:33.275Z,20.61
2017-04-02T00:57:34.953Z,20.66
2017-04-02T00:58:33.912Z,20.7
2017-04-02T00:59:33.658Z,20.64
2017-04-02T01:00:33.868Z,20.64
2017-04-02T01:01:33.564Z,20.69
2017-04-02T01:02:33.933Z,20.72
2017-04-02T01:03:33.887Z,20.66
2017-04-02T01:04:34.543Z,20.7
2017-04-02T01:05:33.687Z,20.69
2017-04-02T01:06:33.952Z,20.62
2017-04-02T01:07:33.645Z,20.7
2017-04-02T01:08:34.713Z,20.72
2017-04-02T01:09:33.923Z,20.7
2017-04-02T01:10:33.975Z,20.66
2017-04-02T01:11:33.666Z,20.61
2017-04-02T01:12:33.941Z,20.67
2017-04-02T01:13:33.943Z,20.67
2017-04-02T01:14:33.997Z,20.66
2017-04-02T01:15:33.956Z,20.73
2017-04-02T01:16:33.962Z,20.7
2017-04-02T01:17:33.965Z,20.73
2017-04-02T01:18:34.025Z,20.67
2017-04-02T01:19:34.429Z,20.73
2017-04-02T01:20:34.031Z,20.61
2017-04-02T01:21:33.991Z,20.73
2017-04-02T01:22:34.143Z,20.58
2017-04-02T01:23:34.002Z,20.66
2017-04-02T01:24:33.696Z,20.64
2017-04-02T01:25:34.064Z,20.64
2017-04-02T01:26:34.017Z,20.66
2017-04-02T01:27:34.071Z,20.67
2017-04-02T01:28:35.330Z,20.67
2017-04-02T01:29:33.821Z,20.59
2017-04-02T01:30:34.146Z,20.59
2017-04-02T01:31:34.102Z,20.7
2017-04-02T01:32:34.054Z,20.62
2017-04-02T01:33:34.106Z,20.67
2017-04-02T01:34:34.113Z,20.55
2017-04-02T01:35:33.805Z,20.64
2017-04-02T01:36:34.075Z,20.59
2017-04-02T01:37:34.180Z,20.61
2017-04-02T01:38:33.461Z,20.62
2017-04-02T01:39:35.067Z,20.64
2017-04-02T01:40:34.096Z,20.66
2017-04-02T01:41:34.389Z,20.61
2017-04-02T01:42:34.162Z,20.66
2017-04-02T01:43:34.112Z,20.61
2017-04-02T01:44:34.169Z,20.66
2017-04-02T01:45:34.177Z,20.59
2017-04-02T01:46:34.188Z,20.64
2017-04-02T01:47:34.136Z,20.66
2017-04-02T01:48:34.189Z,20.64
2017-04-02T01:49:34.151Z,20.66
2017-04-02T01:50:34.954Z,20.62
2017-04-02T01:51:34.204Z,20.66
2017-04-02T01:52:33.853Z,20.58
2017-04-02T01:53:34.276Z,20.52
2017-04-02T01:54:35.076Z,20.72
2017-04-02T01:55:34.183Z,20.62
2017-04-02T01:56:34.285Z,20.69
2017-04-02T01:57:34.199Z,20.67
2017-04-02T01:58:34.195Z,20.57
2017-04-02T01:59:34.307Z,20.61
2017-04-02T02:00:33.893Z,20.7
2017-04-02T02:01:34.217Z,20.64
2017-04-02T02:02:33.957Z,20.69
2017-04-02T02:03:48.795Z,20.55
2017-04-02T02:04:34.026Z,20.58
2017-04-02T02:05:35.037Z,20.58
2017-04-02T02:06:34.244Z,20.62
2017-04-02T02:07:33.986Z,20.59
2017-04-02T02:08:34.253Z,20.62
2017-04-02T02:09:34.317Z,20.59
2017-04-02T02:10:34.263Z,20.67
2017-04-02T02:11:34.015Z,20.59
2017-04-02T02:12:34.014Z,20.61
2017-04-02T02:13:34.286Z,20.52
2017-04-02T02:14:33.991Z,20.62
2017-04-02T02:15:34.592Z,20.58
2017-04-02T02:16:34.754Z,20.62
2017-04-02T02:17:34.312Z,20.59
2017-04-02T02:18:33.996Z,20.55
2017-04-02T02:19:34.313Z,20.66
2017-04-02T02:20:34.319Z,20.58
2017-04-02T02:21:34.326Z,20.57
2017-04-02T02:22:33.755Z,20.59
2017-04-02T02:23:34.436Z,20.62
2017-04-02T02:24:34.441Z,20.62
2017-04-02T02:25:35.375Z,20.58
2017-04-02T02:26:34.093Z,20.55
2017-04-02T02:27:34.860Z,20.58
2017-04-02T02:28:34.049Z,20.72
2017-04-02T02:29:34.425Z,20.69
2017-04-02T02:30:34.933Z,20.62
2017-04-02T02:31:34.382Z,20.55
2017-04-02T02:32:34.436Z,20.61
2017-04-02T02:33:48.648Z,20.73
2017-04-02T02:34:34.190Z,20.69
2017-04-02T02:35:34.140Z,20.66
2017-04-02T02:36:34.095Z,20.7
2017-04-02T02:37:34.465Z,20.67
2017-04-02T02:38:35.372Z,20.67
2017-04-02T02:39:34.477Z,20.66
2017-04-02T02:40:34.267Z,20.59
2017-04-02T02:41:34.437Z,20.64
2017-04-02T02:42:34.443Z,20.58
2017-04-02T02:43:34.499Z,20.54
2017-04-02T02:44:34.193Z,20.58
2017-04-02T02:45:34.458Z,20.58
2017-04-02T02:46:34.202Z,20.58
2017-04-02T02:47:34.206Z,20.58
2017-04-02T02:48:34.474Z,20.58
2017-04-02T02:49:35.181Z,20.57
2017-04-02T02:50:34.486Z,20.58
2017-04-02T02:51:34.490Z,20.62
2017-04-02T02:52:34.549Z,20.64
2017-04-02T02:53:34.501Z,20.61
2017-04-02T02:54:34.611Z,20.51
2017-04-02T02:55:34.562Z,20.54
2017-04-02T02:56:34.517Z,20.57
2017-04-02T02:57:34.570Z,20.57
2017-04-02T02:58:34.531Z,20.55
2017-04-02T02:59:34.587Z,20.57
2017-04-02T03:00:34.945Z,20.61
2017-04-02T03:01:34.647Z,20.54
2017-04-02T03:02:34.346Z,20.57
2017-04-02T03:03:49.126Z,20.55
2017-04-02T03:04:34.569Z,20.61
2017-04-02T03:05:34.574Z,20.52
2017-04-02T03:06:34.575Z,20.55
2017-04-02T03:07:34.320Z,20.58
2017-04-02T03:08:34.635Z,20.55
2017-04-02T03:09:34.329Z,20.52
2017-04-02T03:10:34.596Z,20.58
2017-04-02T03:11:34.744Z,20.58
2017-04-02T03:12:34.299Z,20.52
2017-04-02T03:13:36.072Z,20.58
2017-04-02T03:14:34.669Z,20.62
2017-04-02T03:15:34.681Z,20.57
2017-04-02T03:16:34.681Z,20.58
2017-04-02T03:17:34.636Z,20.59
2017-04-02T03:18:34.640Z,20.62
2017-04-02T03:19:34.647Z,20.57
2017-04-02T03:20:34.653Z,20.64
2017-04-02T03:21:34.708Z,20.52
2017-04-02T03:22:34.704Z,20.69
2017-04-02T03:23:34.458Z,20.66
2017-04-02T03:24:35.580Z,20.72
2017-04-02T03:25:34.678Z,20.67
2017-04-02T03:26:34.848Z,20.62
2017-04-02T03:27:34.749Z,20.57
2017-04-02T03:28:34.746Z,20.64
2017-04-02T03:29:34.703Z,20.61
2017-04-02T03:30:34.395Z,20.5
2017-04-02T03:31:34.716Z,20.58
2017-04-02T03:32:34.772Z,20.57
2017-04-02T03:33:34.464Z,20.62
2017-04-02T03:34:34.781Z,20.61
2017-04-02T03:35:35.637Z,20.55
2017-04-02T03:36:34.789Z,20.55
2017-04-02T03:37:34.475Z,20.61
2017-04-02T03:38:34.753Z,20.59
2017-04-02T03:39:34.760Z,20.54
2017-04-02T03:40:34.814Z,20.5
2017-04-02T03:41:34.458Z,20.58
2017-04-02T03:42:34.462Z,20.55
2017-04-02T03:43:34.778Z,20.55
2017-04-02T03:44:34.837Z,20.52
2017-04-02T03:45:34.792Z,20.57
2017-04-02T03:46:35.735Z,20.54
2017-04-02T03:47:34.179Z,20.64
2017-04-02T03:48:35.056Z,20.58
2017-04-02T03:49:34.864Z,20.54
2017-04-02T03:50:34.921Z,20.54
2017-04-02T03:51:34.829Z,20.62
2017-04-02T03:52:35.034Z,20.55
2017-04-02T03:53:34.835Z,20.55
2017-04-02T03:54:34.842Z,20.5
2017-04-02T03:55:34.532Z,20.54
2017-04-02T03:56:34.904Z,20.66
2017-04-02T03:57:36.096Z,20.61
2017-04-02T03:58:34.913Z,20.59
2017-04-02T03:59:34.973Z,20.58
2017-04-02T04:00:34.563Z,20.61
2017-04-02T04:01:34.891Z,20.54
2017-04-02T04:02:34.936Z,20.55
2017-04-02T04:03:34.941Z,20.58
2017-04-02T04:04:34.893Z,20.61
2017-04-02T04:05:35.042Z,20.55
2017-04-02T04:06:34.646Z,20.64
2017-04-02T04:07:34.913Z,20.61
2017-04-02T04:08:36.018Z,20.59
2017-04-02T04:09:34.923Z,20.55
2017-04-02T04:10:34.978Z,20.51
2017-04-02T04:11:34.936Z,20.51
2017-04-02T04:12:36.043Z,20.48
2017-04-02T04:13:34.948Z,20.48
2017-04-02T04:14:34.954Z,20.54
2017-04-02T04:15:34.697Z,20.5
2017-04-02T04:16:35.011Z,20.51
2017-04-02T04:17:35.068Z,20.47
2017-04-02T04:18:35.021Z,20.5
2017-04-02T04:19:35.828Z,20.54
2017-04-02T04:20:34.984Z,20.5
2017-04-02T04:21:35.040Z,20.43
2017-04-02T04:22:34.997Z,20.54
2017-04-02T04:23:36.136Z,20.52
2017-04-02T04:24:35.008Z,20.51
2017-04-02T04:25:35.051Z,20.48
2017-04-02T04:26:35.066Z,20.58
2017-04-02T04:27:34.757Z,20.5
2017-04-02T04:28:35.029Z,20.52
2017-04-02T04:29:35.036Z,20.43
2017-04-02T04:30:35.092Z,20.54
2017-04-02T04:31:35.095Z,20.54
2017-04-02T04:32:34.512Z,20.5
2017-04-02T04:33:49.361Z,20.5
2017-04-02T04:34:35.858Z,20.51
2017-04-02T04:35:35.068Z,20.51
2017-04-02T04:36:34.809Z,20.54
2017-04-02T04:37:35.184Z,20.54
2017-04-02T04:38:35.087Z,20.54
2017-04-02T04:39:35.188Z,20.43
2017-04-02T04:40:35.152Z,20.51
2017-04-02T04:41:35.101Z,20.54
2017-04-02T04:42:35.205Z,20.5
2017-04-02T04:43:35.133Z,20.51
2017-04-02T04:44:34.850Z,20.54
2017-04-02T04:45:35.760Z,20.51
2017-04-02T04:46:35.128Z,20.57
2017-04-02T04:47:34.821Z,20.52
2017-04-02T04:48:35.239Z,20.54
2017-04-02T04:49:34.834Z,20.54
2017-04-02T04:50:35.149Z,20.61
2017-04-02T04:51:34.893Z,20.5
2017-04-02T04:52:35.162Z,20.51
2017-04-02T04:53:35.162Z,20.55
2017-04-02T04:54:35.222Z,20.57
2017-04-02T04:55:35.380Z,20.51
2017-04-02T04:56:35.785Z,20.48
2017-04-02T04:57:35.238Z,20.54
2017-04-02T04:58:35.022Z,20.55
2017-04-02T04:59:34.893Z,20.48
2017-04-02T05:00:35.207Z,20.59
2017-04-02T05:01:35.211Z,20.54
2017-04-02T05:02:35.217Z,20.57
2017-04-02T05:03:34.959Z,20.52
2017-04-02T05:04:35.279Z,20.55
2017-04-02T05:05:35.334Z,20.59
2017-04-02T05:06:35.292Z,20.57
2017-04-02T05:07:35.582Z,20.51
2017-04-02T05:08:35.247Z,20.52
2017-04-02T05:09:35.305Z,20.54
2017-04-02T05:10:35.262Z,20.52
2017-04-02T05:11:35.269Z,20.54
2017-04-02T05:12:35.271Z,20.5
2017-04-02T05:13:35.279Z,20.5
2017-04-02T05:14:35.279Z,20.5
2017-04-02T05:15:35.289Z,20.51
2017-04-02T05:16:35.345Z,20.51
2017-04-02T05:17:35.301Z,20.5
2017-04-02T05:18:35.892Z,20.5
2017-04-02T05:19:35.311Z,20.54
2017-04-02T05:20:35.316Z,20.48
2017-04-02T05:21:35.324Z,20.52
2017-04-02T05:22:35.375Z,20.55
2017-04-02T05:23:35.382Z,20.57
2017-04-02T05:24:35.075Z,20.54
2017-04-02T05:25:35.445Z,20.52
2017-04-02T05:26:35.350Z,20.54
2017-04-02T05:27:35.453Z,20.52
2017-04-02T05:28:35.363Z,20.55
2017-04-02T05:29:36.020Z,20.59
2017-04-02T05:30:35.421Z,20.54
2017-04-02T05:31:35.429Z,20.52
2017-04-02T05:32:35.069Z,20.54
2017-04-02T05:33:49.957Z,20.5
2017-04-02T05:34:35.395Z,20.52
2017-04-02T05:35:35.437Z,20.55
2017-04-02T05:36:35.453Z,20.48
2017-04-02T05:37:35.408Z,20.54
2017-04-02T05:38:35.414Z,20.57
2017-04-02T05:39:35.422Z,20.47
2017-04-02T05:40:35.866Z,20.51
2017-04-02T05:41:35.119Z,20.57
2017-04-02T05:42:35.487Z,20.62
2017-04-02T05:43:35.447Z,20.5
2017-04-02T05:44:35.597Z,20.54
2017-04-02T05:45:35.452Z,20.51
2017-04-02T05:46:35.153Z,20.55
2017-04-02T05:47:35.515Z,20.55
2017-04-02T05:48:35.203Z,20.54
2017-04-02T05:49:35.212Z,20.54
2017-04-02T05:50:35.532Z,20.48
2017-04-02T05:51:36.089Z,20.52
2017-04-02T05:52:35.490Z,20.52
2017-04-02T05:53:35.498Z,20.52
2017-04-02T05:54:35.553Z,20.55
2017-04-02T05:55:36.259Z,20.54
2017-04-02T05:56:35.524Z,20.55
2017-04-02T05:57:35.519Z,20.57
2017-04-02T05:58:35.214Z,20.62
2017-04-02T05:59:35.224Z,20.57
2017-04-02T06:00:35.535Z,20.55
2017-04-02T06:01:35.543Z,20.55
2017-04-02T06:02:35.695Z,20.55
2017-04-02T06:03:35.602Z,20.54
2017-04-02T06:04:35.296Z,20.61
2017-04-02T06:05:35.502Z,20.61
2017-04-02T06:06:35.973Z,20.55
2017-04-02T06:07:35.578Z,20.52
2017-04-02T06:08:35.578Z,20.62
2017-04-02T06:09:35.586Z,20.61
2017-04-02T06:10:35.595Z,20.59
2017-04-02T06:11:35.602Z,20.58
2017-04-02T06:12:35.610Z,20.69
2017-04-02T06:13:35.345Z,20.64
2017-04-02T06:14:35.615Z,20.67
2017-04-02T06:15:36.722Z,20.58
2017-04-02T06:16:35.628Z,20.64
2017-04-02T06:17:35.630Z,20.64
2017-04-02T06:18:35.324Z,20.64
2017-04-02T06:19:35.695Z,20.62
2017-04-02T06:20:35.895Z,20.62
2017-04-02T06:21:35.344Z,20.66
2017-04-02T06:22:35.798Z,20.62
2017-04-02T06:23:35.714Z,20.69
2017-04-02T06:24:35.719Z,20.59
2017-04-02T06:25:35.677Z,20.69
2017-04-02T06:26:36.730Z,20.62
2017-04-02T06:27:35.684Z,20.72
2017-04-02T06:28:35.483Z,20.7
2017-04-02T06:29:35.850Z,20.7
2017-04-02T06:30:35.705Z,20.8
2017-04-02T06:31:35.706Z,20.84
2017-04-02T06:32:35.818Z,20.84
2017-04-02T06:33:35.717Z,20.91
2017-04-02T06:34:35.411Z,20.87
2017-04-02T06:35:35.732Z,20.84
2017-04-02T06:36:35.160Z,20.88
2017-04-02T06:37:36.795Z,20.91
2017-04-02T06:38:35.492Z,20.95
2017-04-02T06:39:35.753Z,20.91
2017-04-02T06:40:35.759Z,20.98
2017-04-02T06:41:36.868Z,21.07
2017-04-02T06:42:35.824Z,21.09
2017-04-02T06:43:35.773Z,21.17
2017-04-02T06:44:35.833Z,21.19
2017-04-02T06:45:35.835Z,21.28
2017-04-02T06:46:35.796Z,21.22
2017-04-02T06:47:35.799Z,21.37
2017-04-02T06:48:36.404Z,21.52
2017-04-02T06:49:35.811Z,21.69
2017-04-02T06:50:35.820Z,21.83
2017-04-02T06:51:35.874Z,21.77
2017-04-02T06:52:36.483Z,21.68
2017-04-02T06:53:35.833Z,21.54
2017-04-02T06:54:35.576Z,21.54
2017-04-02T06:55:35.846Z,21.52
2017-04-02T06:56:35.594Z,21.4
2017-04-02T06:57:35.643Z,21.46
2017-04-02T06:58:35.913Z,21.5
2017-04-02T06:59:35.870Z,21.46
2017-04-02T07:00:36.173Z,21.44
2017-04-02T07:01:35.888Z,21.46
2017-04-02T07:02:35.936Z,21.37
2017-04-02T07:03:36.594Z,21.4
2017-04-02T07:04:35.634Z,21.34
2017-04-02T07:05:35.279Z,21.38
2017-04-02T07:06:35.647Z,21.44
2017-04-02T07:07:35.921Z,21.4
2017-04-02T07:08:35.922Z,21.42
2017-04-02T07:09:35.925Z,21.5
2017-04-02T07:10:35.935Z,21.53
2017-04-02T07:11:35.944Z,21.62
2017-04-02T07:12:37.622Z,21.62
2017-04-02T07:13:35.688Z,21.58
2017-04-02T07:14:36.307Z,21.54
2017-04-02T07:15:35.698Z,21.64
2017-04-02T07:16:35.969Z,21.61
2017-04-02T07:17:35.346Z,21.62
2017-04-02T07:18:35.668Z,21.69
2017-04-02T07:19:36.079Z,21.69
2017-04-02T07:20:35.727Z,21.69
2017-04-02T07:21:35.682Z,21.74
2017-04-02T07:22:35.727Z,21.75
2017-04-02T07:23:36.878Z,21.82
2017-04-02T07:24:36.014Z,21.9
2017-04-02T07:25:36.109Z,21.74
2017-04-02T07:26:36.127Z,21.72
2017-04-02T07:27:36.082Z,21.77
2017-04-02T07:28:36.039Z,21.9
2017-04-02T07:29:36.045Z,21.82
2017-04-02T07:30:36.098Z,21.82
2017-04-02T07:31:36.095Z,21.82
2017-04-02T07:32:36.169Z,21.77
2017-04-02T07:33:35.757Z,21.8
2017-04-02T07:34:36.968Z,21.86
2017-04-02T07:35:36.079Z,21.86
2017-04-02T07:36:36.196Z,21.8
2017-04-02T07:37:36.093Z,21.82
2017-04-02T07:38:36.966Z,21.77
2017-04-02T07:39:36.120Z,21.74
2017-04-02T07:40:36.214Z,21.82
2017-04-02T07:41:36.118Z,21.83
2017-04-02T07:42:36.121Z,21.75
2017-04-02T07:43:35.818Z,21.82
2017-04-02T07:44:36.237Z,21.86
2017-04-02T07:45:36.497Z,21.83
2017-04-02T07:46:36.148Z,21.83
2017-04-02T07:47:36.206Z,21.9
2017-04-02T07:48:36.208Z,21.83
2017-04-02T07:49:37.253Z,21.92
2017-04-02T07:50:36.175Z,21.84
2017-04-02T07:51:36.180Z,21.82
2017-04-02T07:52:36.185Z,21.9
2017-04-02T07:53:36.240Z,21.82
2017-04-02T07:54:36.199Z,21.88
2017-04-02T07:55:36.203Z,21.86
2017-04-02T07:56:36.209Z,21.82
2017-04-02T07:57:36.264Z,21.84
2017-04-02T07:58:36.283Z,21.8
2017-04-02T07:59:36.329Z,21.9
2017-04-02T08:00:36.775Z,21.8
2017-04-02T08:01:35.930Z,21.88
2017-04-02T08:02:36.245Z,21.84
2017-04-02T08:03:36.043Z,21.9
2017-04-02T08:04:36.260Z,21.84
2017-04-02T08:05:36.366Z,21.9
2017-04-02T08:06:36.316Z,21.88
2017-04-02T08:07:36.013Z,21.86
2017-04-02T08:08:36.328Z,21.86
2017-04-02T08:09:36.287Z,21.82
2017-04-02T08:10:36.031Z,21.75
2017-04-02T08:11:36.935Z,21.83
2017-04-02T08:12:35.992Z,21.86
2017-04-02T08:13:36.363Z,21.75
2017-04-02T08:14:36.006Z,21.86
2017-04-02T08:15:36.381Z,21.8
2017-04-02T08:16:36.377Z,21.91
2017-04-02T08:17:36.338Z,21.98
2017-04-02T08:18:36.341Z,21.84
2017-04-02T08:19:36.132Z,21.91
2017-04-02T08:20:37.015Z,21.88
2017-04-02T08:21:36.358Z,21.96
2017-04-02T08:22:36.765Z,21.99
2017-04-02T08:23:36.370Z,21.98
2017-04-02T08:24:36.382Z,21.99
2017-04-02T08:25:36.070Z,21.99
2017-04-02T08:26:36.488Z,22
2017-04-02T08:27:36.187Z,22.09
2017-04-02T08:28:36.401Z,22.25
2017-04-02T08:29:36.411Z,23.78
2017-04-02T08:30:36.467Z,25.99
2017-04-02T08:31:36.527Z,27.51
2017-04-02T08:32:36.426Z,28.37
2017-04-02T08:33:36.699Z,28.95
2017-04-02T08:34:36.496Z,29.45
2017-04-02T08:35:36.139Z,29.74
2017-04-02T08:36:36.759Z,30.15
2017-04-02T08:37:36.256Z,30.57
2017-04-02T08:38:36.481Z,30.51
2017-04-02T08:39:36.483Z,30.57
2017-04-02T08:40:36.546Z,30.51
2017-04-02T08:41:36.500Z,30.42
2017-04-02T08:42:36.561Z,30.37
2017-04-02T08:43:36.517Z,30.45
2017-04-02T08:44:36.364Z,30.43
2017-04-02T08:45:36.540Z,30.43
2017-04-02T08:46:36.333Z,30.57
2017-04-02T08:47:36.549Z,30.54
2017-04-02T08:48:36.658Z,30.26
2017-04-02T08:49:36.566Z,30.35
2017-04-02T08:50:36.675Z,30.16
2017-04-02T08:51:36.271Z,30.19
2017-04-02T08:52:36.692Z,29.98
2017-04-02T08:53:36.595Z,30.02
2017-04-02T08:54:36.601Z,29.95
2017-04-02T08:55:36.762Z,29.37
2017-04-02T08:56:36.666Z,29.41
2017-04-02T08:57:38.010Z,29.18
2017-04-02T08:58:36.630Z,28.49
2017-04-02T08:59:36.690Z,27.39
2017-04-02T09:00:36.383Z,26.05
2017-04-02T09:01:36.339Z,24.81
2017-04-02T09:02:36.396Z,24.25
2017-04-02T09:03:36.665Z,23.76
2017-04-02T09:04:36.054Z,23.63
2017-04-02T09:05:36.678Z,23.48
2017-04-02T09:06:36.676Z,23.42
2017-04-02T09:07:36.691Z,23.38
2017-04-02T09:08:36.438Z,23.17
2017-04-02T09:09:36.755Z,23.16
2017-04-02T09:10:36.960Z,23.05
2017-04-02T09:11:36.770Z,23.05
2017-04-02T09:12:36.724Z,22.97
2017-04-02T09:13:36.728Z,22.83
2017-04-02T09:14:36.734Z,23
2017-04-02T09:15:36.435Z,22.88
2017-04-02T09:16:36.748Z,22.86
2017-04-02T09:17:36.131Z,22.83
2017-04-02T09:18:36.497Z,22.79
2017-04-02T09:19:38.020Z,22.82
2017-04-02T09:20:36.862Z,22.8
2017-04-02T09:21:36.884Z,22.82
2017-04-02T09:22:36.575Z,22.76
2017-04-02T09:23:36.797Z,22.77
2017-04-02T09:24:36.859Z,22.8
2017-04-02T09:25:36.497Z,22.73
2017-04-02T09:26:36.813Z,22.67
2017-04-02T09:27:36.867Z,22.64
2017-04-02T09:28:36.877Z,22.68
2017-04-02T09:29:36.885Z,22.64
2017-04-02T09:30:38.042Z,22.64
2017-04-02T09:31:36.949Z,22.67
2017-04-02T09:32:36.906Z,22.68
2017-04-02T09:33:36.859Z,22.68
2017-04-02T09:34:37.215Z,22.65
2017-04-02T09:35:36.923Z,22.79
2017-04-02T09:36:36.930Z,22.68
2017-04-02T09:37:36.882Z,22.68
2017-04-02T09:38:36.627Z,22.76
2017-04-02T09:39:36.899Z,22.68
2017-04-02T09:40:36.902Z,22.76
2017-04-02T09:41:37.960Z,22.68
2017-04-02T09:42:36.915Z,22.72
2017-04-02T09:43:36.924Z,22.55
2017-04-02T09:44:36.931Z,22.51
2017-04-02T09:45:36.934Z,22.58
2017-04-02T09:46:36.943Z,22.51
2017-04-02T09:47:37.052Z,22.55
2017-04-02T09:48:36.956Z,22.49
2017-04-02T09:49:36.961Z,22.46
2017-04-02T09:50:36.968Z,22.51
2017-04-02T09:51:37.026Z,22.46
2017-04-02T09:52:37.818Z,22.39
2017-04-02T09:53:36.726Z,22.4
2017-04-02T09:54:36.994Z,22.51
2017-04-02T09:55:36.996Z,22.76
2017-04-02T09:56:38.110Z,22.68
2017-04-02T09:57:37.017Z,22.62
2017-04-02T09:58:37.126Z,22.68
2017-04-02T09:59:37.026Z,22.55
2017-04-02T10:00:37.027Z,22.54
2017-04-02T10:01:36.728Z,22.6
2017-04-02T10:02:37.150Z,22.46
2017-04-02T10:03:37.951Z,22.33
2017-04-02T10:04:37.059Z,22.31
2017-04-02T10:05:37.101Z,22.25
2017-04-02T10:06:37.121Z,22.39
2017-04-02T10:07:38.482Z,22.31
2017-04-02T10:08:37.130Z,22.33
2017-04-02T10:09:36.776Z,22.4
2017-04-02T10:10:37.095Z,22.25
2017-04-02T10:11:37.102Z,22.33
2017-04-02T10:12:36.796Z,22.25
2017-04-02T10:13:36.802Z,22.25
2017-04-02T10:14:37.117Z,22.25
2017-04-02T10:15:37.127Z,22.22
2017-04-02T10:16:37.130Z,22.27
2017-04-02T10:17:37.138Z,22.25
2017-04-02T10:18:37.891Z,22.33
2017-04-02T10:19:36.886Z,22.3
2017-04-02T10:20:37.211Z,22.28
2017-04-02T10:21:36.898Z,22.31
2017-04-02T10:22:37.217Z,22.31
2017-04-02T10:23:36.861Z,22.27
2017-04-02T10:24:37.181Z,22.25
2017-04-02T10:25:37.288Z,22.24
2017-04-02T10:26:37.199Z,22.35
2017-04-02T10:27:37.198Z,22.28
2017-04-02T10:28:37.262Z,22.28
2017-04-02T10:29:37.900Z,22.3
2017-04-02T10:30:37.269Z,22.4
2017-04-02T10:31:37.226Z,22.28
2017-04-02T10:32:37.273Z,22.35
2017-04-02T10:33:37.271Z,22.28
2017-04-02T10:34:37.033Z,22.33
2017-04-02T10:35:37.247Z,22.3
2017-04-02T10:36:37.297Z,22.25
2017-04-02T10:37:36.951Z,22.42
2017-04-02T10:38:38.243Z,22.28
2017-04-02T10:39:37.284Z,22.4
2017-04-02T10:40:37.640Z,22.39
2017-04-02T10:41:36.974Z,22.39
2017-04-02T10:42:37.343Z,22.27
2017-04-02T10:43:37.348Z,22.33
2017-04-02T10:44:37.309Z,22.28
2017-04-02T10:45:37.365Z,22.3
2017-04-02T10:46:37.319Z,22.33
2017-04-02T10:47:37.061Z,22.31
2017-04-02T10:48:37.330Z,22.22
2017-04-02T10:49:38.250Z,22.31
2017-04-02T10:50:37.032Z,22.25
2017-04-02T10:51:37.550Z,22.35
2017-04-02T10:52:37.356Z,22.28
2017-04-02T10:53:38.386Z,22.28
2017-04-02T10:54:37.421Z,22.22
2017-04-02T10:55:37.210Z,22.31
2017-04-02T10:56:37.432Z,22.21
2017-04-02T10:57:37.439Z,22.18
2017-04-02T10:58:37.078Z,22.17
2017-04-02T10:59:37.400Z,22.18
2017-04-02T11:00:36.832Z,22.2
2017-04-02T11:01:37.414Z,22.2
2017-04-02T11:02:37.470Z,22.17
2017-04-02T11:03:37.423Z,22.18
2017-04-02T11:04:38.851Z,22.17
2017-04-02T11:05:37.528Z,22.2
2017-04-02T11:06:37.128Z,22.06
2017-04-02T11:07:37.450Z,22.1
2017-04-02T11:08:37.147Z,22.14
2017-04-02T11:09:37.518Z,22.05
2017-04-02T11:10:37.466Z,22.09
2017-04-02T11:11:37.213Z,22.07
2017-04-02T11:12:37.480Z,22.05
2017-04-02T11:13:37.584Z,21.9
2017-04-02T11:14:37.179Z,21.99
2017-04-02T11:15:38.670Z,21.99
2017-04-02T11:16:37.513Z,21.98
2017-04-02T11:17:37.561Z,22.02
2017-04-02T11:18:37.569Z,22
2017-04-02T11:19:37.212Z,21.99
2017-04-02T11:20:37.528Z,22.03
2017-04-02T11:21:37.224Z,22.06
2017-04-02T11:22:37.544Z,22
2017-04-02T11:23:37.600Z,22.06
2017-04-02T11:24:37.552Z,22.14
2017-04-02T11:25:37.248Z,22.05
2017-04-02T11:26:38.559Z,22.02
2017-04-02T11:27:37.625Z,22
2017-04-02T11:28:37.580Z,22
2017-04-02T11:29:37.632Z,22
2017-04-02T11:30:37.589Z,22.03
2017-04-02T11:31:37.598Z,22.05
2017-04-02T11:32:37.602Z,21.96
2017-04-02T11:33:37.606Z,21.94
2017-04-02T11:34:37.620Z,21.91
2017-04-02T11:35:37.310Z,22
2017-04-02T11:36:37.313Z,21.99
2017-04-02T11:37:38.337Z,22.02
2017-04-02T11:38:37.637Z,22.06
2017-04-02T11:39:37.387Z,22.05
2017-04-02T11:40:37.658Z,22.03
2017-04-02T11:41:37.348Z,22.02
2017-04-02T11:42:37.717Z,22.05
2017-04-02T11:43:37.671Z,22.07
2017-04-02T11:44:37.683Z,22.03
2017-04-02T11:45:37.681Z,22.14
2017-04-02T11:46:37.376Z,22.12
2017-04-02T11:47:37.697Z,22.14
2017-04-02T11:48:38.300Z,22.09
2017-04-02T11:49:37.758Z,22.03
2017-04-02T11:50:37.766Z,22.06
2017-04-02T11:51:37.722Z,22.06
2017-04-02T11:52:37.825Z,22.05
2017-04-02T11:53:37.416Z,22.03
2017-04-02T11:54:37.740Z,22.07
2017-04-02T11:55:37.746Z,22.09
2017-04-02T11:56:37.751Z,22.05
2017-04-02T11:57:37.756Z,22.02
2017-04-02T11:58:37.762Z,22.05
2017-04-02T11:59:38.070Z,22.06
2017-04-02T12:00:37.830Z,22.07
2017-04-02T12:01:37.784Z,22.06
2017-04-02T12:02:37.837Z,21.99
2017-04-02T12:03:37.792Z,22.14
2017-04-02T12:04:37.807Z,22.03
2017-04-02T12:05:37.804Z,22.05
2017-04-02T12:06:37.862Z,21.99
2017-04-02T12:07:37.867Z,21.96
2017-04-02T12:08:37.874Z,21.94
2017-04-02T12:09:37.518Z,21.94
2017-04-02T12:10:38.038Z,21.92
2017-04-02T12:11:37.630Z,21.88
2017-04-02T12:12:39.317Z,21.91
2017-04-02T12:13:37.854Z,21.94
2017-04-02T12:14:37.861Z,21.91
2017-04-02T12:15:37.917Z,22
2017-04-02T12:16:37.870Z,22
2017-04-02T12:17:37.877Z,22.1
2017-04-02T12:18:37.889Z,22
2017-04-02T12:19:37.892Z,22.07
2017-04-02T12:20:37.896Z,22
2017-04-02T12:21:37.591Z,22.06
2017-04-02T12:22:37.910Z,22.03
2017-04-02T12:23:38.520Z,22.09
2017-04-02T12:24:37.971Z,21.9
2017-04-02T12:25:37.927Z,21.99
2017-04-02T12:26:37.619Z,21.91
2017-04-02T12:27:37.627Z,21.94
2017-04-02T12:28:37.683Z,21.91
2017-04-02T12:29:37.638Z,21.9
2017-04-02T12:30:37.959Z,21.84
2017-04-02T12:31:37.964Z,21.84
2017-04-02T12:32:37.657Z,21.83
2017-04-02T12:33:37.716Z,21.84
2017-04-02T12:34:39.185Z,21.8
2017-04-02T12:35:38.040Z,21.84
2017-04-02T12:36:37.994Z,21.94
2017-04-02T12:37:37.998Z,21.9
2017-04-02T12:38:38.008Z,21.96
2017-04-02T12:39:37.701Z,21.99
2017-04-02T12:40:37.703Z,22
2017-04-02T12:41:37.714Z,21.91
2017-04-02T12:42:37.718Z,21.94
2017-04-02T12:43:38.085Z,21.96
2017-04-02T12:44:37.779Z,21.9
2017-04-02T12:45:38.949Z,21.88
2017-04-02T12:46:38.103Z,21.94
2017-04-02T12:47:38.060Z,22
2017-04-02T12:48:38.065Z,21.91
2017-04-02T12:49:38.125Z,21.94
2017-04-02T12:50:37.820Z,21.86
2017-04-02T12:51:38.182Z,21.9
2017-04-02T12:52:38.143Z,21.84
2017-04-02T12:53:38.101Z,21.86
2017-04-02T12:54:38.104Z,21.88
2017-04-02T12:55:38.160Z,21.9
2017-04-02T12:56:38.967Z,21.8